createdAt,value
2022-10-07T00:01:53.623Z,1.50
2022-10-07T00:06:05.482Z,1.65
2022-10-07T00:10:08.194Z,1.33
2022-10-07T00:14:10.468Z,1.30
2022-10-07T00:18:12.671Z,1.35
2022-10-07T00:22:14.933Z,1.27
2022-10-07T00:26:20.246Z,1.20
2022-10-07T00:30:23.568Z,1.30
2022-10-07T00:34:25.901Z,1.20
2022-10-07T00:38:27.927Z,1.10
2022-10-07T00:42:30.878Z,1.30
2022-10-07T00:46:37.603Z,2.60
2022-10-07T00:50:39.642Z,1.48
2022-10-07T00:54:43.693Z,1.50
2022-10-07T00:58:48.050Z,1.38
2022-10-07T01:02:50.988Z,1.40
2022-10-07T01:06:53.161Z,1.13
2022-10-07T01:11:01.061Z,1.50
2022-10-07T01:15:30.863Z,1.50
2022-10-07T01:19:42.970Z,1.17
2022-10-07T01:24:22.124Z,1.20
2022-10-07T01:28:50.452Z,1.10
2022-10-07T01:33:04.389Z,1.10
2022-10-07T01:37:09.869Z,0.90
2022-10-07T01:41:16.088Z,1.40
2022-10-07T01:45:21.682Z,1.10
2022-10-07T01:49:23.806Z,1.30
2022-10-07T01:53:56.932Z,1.20
2022-10-07T01:58:15.708Z,1.08
2022-10-07T02:02:30.878Z,1.75
2022-10-07T02:07:06.037Z,1.40
2022-10-07T02:11:19.499Z,1.30
2022-10-07T02:15:27.443Z,1.17
2022-10-07T02:19:34.829Z,1.42
2022-10-07T02:23:39.985Z,0.90
2022-10-07T02:27:45.112Z,1.08
2022-10-07T02:31:50.482Z,1.17
2022-10-07T02:35:55.670Z,1.15
2022-10-07T02:39:58.239Z,1.30
2022-10-07T02:44:13.511Z,1.20
2022-10-07T02:48:24.649Z,1.15
2022-10-07T02:52:31.232Z,1.30
2022-10-07T02:56:36.219Z,1.20
2022-10-07T03:00:42.620Z,1.13
2022-10-07T03:04:45.169Z,1.17
2022-10-07T03:08:47.993Z,1.17
2022-10-07T03:12:50.368Z,0.93
2022-10-07T03:16:53.108Z,1.05
2022-10-07T03:20:57.521Z,1.20
2022-10-07T03:24:59.699Z,1.10
2022-10-07T03:29:01.918Z,1.33
2022-10-07T03:33:05.068Z,1.27
2022-10-07T03:37:07.433Z,1.08
2022-10-07T03:41:09.600Z,1.40
2022-10-07T03:45:11.687Z,1.00
2022-10-07T03:49:13.887Z,0.93
2022-10-07T03:53:16.048Z,1.00
2022-10-07T03:57:36.919Z,1.25
2022-10-07T04:01:40.820Z,1.15
2022-10-07T04:05:43.386Z,1.10
2022-10-07T04:09:45.513Z,1.10
2022-10-07T04:13:48.219Z,1.38
2022-10-07T04:17:58.396Z,1.20
2022-10-07T04:22:04.961Z,1.15
2022-10-07T04:26:12.382Z,2.47
2022-10-07T04:30:18.982Z,1.40
2022-10-07T04:34:21.194Z,1.40
2022-10-07T04:38:27.573Z,1.30
2022-10-07T04:42:50.278Z,1.25
2022-10-07T04:46:54.114Z,1.20
2022-10-07T04:51:01.638Z,1.45
2022-10-07T04:55:04.113Z,1.83
2022-10-07T04:59:06.446Z,1.58
2022-10-07T05:03:10.888Z,1.30
2022-10-07T05:07:13.002Z,1.10
2022-10-07T05:11:16.421Z,1.48
2022-10-07T05:15:26.933Z,1.33
2022-10-07T05:19:29.187Z,1.33
2022-10-07T05:23:31.686Z,1.35
2022-10-07T05:27:36.498Z,1.73
2022-10-07T05:31:38.649Z,1.70
2022-10-07T05:35:46.285Z,1.70
2022-10-07T05:39:48.766Z,1.67
2022-10-07T05:43:55.036Z,1.77
2022-10-07T05:47:58.277Z,1.30
2022-10-07T05:52:00.670Z,1.50
2022-10-07T05:56:06.657Z,1.60
2022-10-07T06:00:09.587Z,1.40
2022-10-07T06:04:21.853Z,1.50
2022-10-07T06:08:27.253Z,1.17
2022-10-07T06:12:51.086Z,1.20
2022-10-07T06:16:53.277Z,1.20
2022-10-07T06:20:57.899Z,1.80
2022-10-07T06:25:02.432Z,1.65
2022-10-07T06:29:06.519Z,1.70
2022-10-07T06:33:08.650Z,2.05
2022-10-07T06:37:10.858Z,2.95
2022-10-07T06:41:13.045Z,3.00
2022-10-07T06:45:15.270Z,3.08
2022-10-07T06:49:17.412Z,3.88
2022-10-07T06:53:19.785Z,2.15
2022-10-07T06:57:44.430Z,1.90
2022-10-07T07:01:44.941Z,4.43
2022-10-07T07:05:48.750Z,4.68
2022-10-07T07:09:54.075Z,4.70
2022-10-07T07:13:57.328Z,3.78
2022-10-07T07:18:01.310Z,4.03
2022-10-07T07:22:04.060Z,4.07
2022-10-07T07:26:06.271Z,3.40
2022-10-07T07:30:09.564Z,4.30
2022-10-07T07:34:13.596Z,3.72
2022-10-07T07:38:16.942Z,4.13
2022-10-07T07:42:19.450Z,4.55
2022-10-07T07:46:25.628Z,4.43
2022-10-07T07:50:28.047Z,4.07
2022-10-07T07:54:32.272Z,3.78
2022-10-07T07:58:34.708Z,3.70
2022-10-07T08:02:37.096Z,3.25
2022-10-07T08:06:40.306Z,3.10
2022-10-07T08:10:42.864Z,2.78
2022-10-07T08:14:45.202Z,3.30
2022-10-07T08:18:50.574Z,4.22
2022-10-07T08:22:58.209Z,4.53
2022-10-07T08:27:01.339Z,4.60
2022-10-07T08:31:11.663Z,3.13
2022-10-07T08:35:13.707Z,1.20
2022-10-07T08:39:16.095Z,1.20
2022-10-07T08:43:21.674Z,1.20
2022-10-07T08:47:38.948Z,1.00
2022-10-07T08:51:48.310Z,1.15
2022-10-07T08:55:56.534Z,0.73
2022-10-07T09:00:01.465Z,0.63
2022-10-07T09:04:15.722Z,0.60
2022-10-07T09:08:28.521Z,0.95
2022-10-07T09:12:38.610Z,1.15
2022-10-07T09:16:45.126Z,1.17
2022-10-07T09:20:53.545Z,0.97
2022-10-07T09:25:22.684Z,0.77
2022-10-07T09:29:29.192Z,0.90
2022-10-07T09:33:41.523Z,0.70
2022-10-07T09:38:03.270Z,0.75
2022-10-07T09:42:09.508Z,0.75
2022-10-07T09:46:26.865Z,0.98
2022-10-07T09:50:36.976Z,0.80
2022-10-07T09:54:39.025Z,1.20
2022-10-07T09:58:41.082Z,0.90
2022-10-07T10:02:48.094Z,1.05
2022-10-07T10:06:52.343Z,0.90
2022-10-07T10:11:01.381Z,0.90
2022-10-07T10:15:24.418Z,0.80
2022-10-07T10:19:27.636Z,1.20
2022-10-07T10:23:35.914Z,0.90
2022-10-07T10:27:50.624Z,0.98
2022-10-07T10:31:58.703Z,0.77
2022-10-07T10:36:21.466Z,1.15
2022-10-07T10:40:53.486Z,1.10
2022-10-07T10:45:18.303Z,1.65
2022-10-07T10:49:30.341Z,1.42
2022-10-07T10:53:51.827Z,1.27
2022-10-07T10:58:36.310Z,1.23
2022-10-07T11:02:38.419Z,0.85
2022-10-07T11:06:44.265Z,0.80
2022-10-07T11:11:18.808Z,1.10
2022-10-07T11:15:26.673Z,1.80
2022-10-07T11:19:45.310Z,1.55
2022-10-07T11:24:05.815Z,1.35
2022-10-07T11:28:16.493Z,2.10
2022-10-07T11:32:31.001Z,1.00
2022-10-07T11:36:41.455Z,1.70
2022-10-07T11:40:49.341Z,1.20
2022-10-07T11:45:03.149Z,1.30
2022-10-07T11:49:11.905Z,1.23
2022-10-07T11:53:21.852Z,1.30
2022-10-07T11:57:31.463Z,1.10
2022-10-07T12:01:47.449Z,1.10
2022-10-07T12:05:49.532Z,1.10
2022-10-07T12:10:18.045Z,1.23
2022-10-07T12:14:31.544Z,1.42
2022-10-07T12:18:33.641Z,1.48
2022-10-07T12:22:42.274Z,1.38
2022-10-07T12:26:45.885Z,1.17
2022-10-07T12:30:53.942Z,1.40
2022-10-07T12:34:55.969Z,1.10
2022-10-07T12:39:00.816Z,1.38
2022-10-07T12:43:19.570Z,1.27
2022-10-07T12:47:29.483Z,2.30
2022-10-07T12:51:39.212Z,1.30
2022-10-07T12:55:48.296Z,1.55
2022-10-07T12:59:59.867Z,1.70
2022-10-07T13:04:40.619Z,1.50
2022-10-07T13:09:02.740Z,1.48
2022-10-07T13:13:20.269Z,1.50
2022-10-07T13:21:41.527Z,1.45
2022-10-07T13:25:47.010Z,1.05
2022-10-07T13:29:49.111Z,1.42
2022-10-07T13:33:52.508Z,1.30
2022-10-07T13:37:54.542Z,1.30
2022-10-07T13:42:01.967Z,1.13
2022-10-07T13:46:09.759Z,1.48
2022-10-07T13:50:19.070Z,2.25
2022-10-07T13:54:24.272Z,1.23
2022-10-07T13:58:26.722Z,1.33
2022-10-07T14:02:29.017Z,1.30
2022-10-07T14:06:48.699Z,1.10
2022-10-07T14:11:03.327Z,1.40
2022-10-07T14:15:20.140Z,1.15
2022-10-07T14:19:22.575Z,1.10
2022-10-07T14:23:34.186Z,1.48
2022-10-07T14:27:39.673Z,1.13
2022-10-07T14:32:00.103Z,1.05
2022-10-07T14:36:14.131Z,1.33
2022-10-07T14:40:25.369Z,1.30
2022-10-07T14:44:27.818Z,1.33
2022-10-07T14:48:29.805Z,1.20
2022-10-07T14:52:42.077Z,1.20
2022-10-07T14:56:46.505Z,1.25
2022-10-07T15:00:48.596Z,1.10
2022-10-07T15:04:50.710Z,1.20
2022-10-07T15:08:52.820Z,1.15
2022-10-07T15:12:56.069Z,1.30
2022-10-07T15:16:58.645Z,1.40
2022-10-07T15:21:00.751Z,1.35
2022-10-07T15:25:05.723Z,1.10
2022-10-07T15:29:08.469Z,1.20
2022-10-07T15:33:12.393Z,1.50
2022-10-07T15:37:14.829Z,1.38
2022-10-07T15:41:32.272Z,1.70
2022-10-07T15:45:34.613Z,1.40
2022-10-07T15:49:36.625Z,1.35
2022-10-07T15:53:38.624Z,1.50
2022-10-07T15:57:40.673Z,1.33
2022-10-07T16:01:42.959Z,2.63
2022-10-07T16:05:44.988Z,2.13
2022-10-07T16:09:47.042Z,1.80
2022-10-07T16:13:49.346Z,1.90
2022-10-07T16:17:53.155Z,1.50
2022-10-07T16:21:55.141Z,1.42
2022-10-07T16:25:57.162Z,1.23
2022-10-07T16:30:17.968Z,1.33
2022-10-07T16:34:19.960Z,1.40
2022-10-07T16:38:22.338Z,1.40
2022-10-07T16:42:24.399Z,1.77
2022-10-07T16:46:27.196Z,1.38
2022-10-07T16:50:29.941Z,1.65
2022-10-07T16:54:35.145Z,2.05
2022-10-07T16:58:40.106Z,1.70
2022-10-07T17:02:42.107Z,3.50
2022-10-07T17:06:45.541Z,2.47
2022-10-07T17:10:47.532Z,2.10
2022-10-07T17:14:49.546Z,2.28
2022-10-07T17:18:52.184Z,2.00
2022-10-07T17:22:54.153Z,3.47
2022-10-07T17:26:56.363Z,2.90
2022-10-07T17:31:04.288Z,2.33
2022-10-07T17:35:08.381Z,4.93
2022-10-07T17:39:10.585Z,4.13
2022-10-07T17:43:12.770Z,2.33
2022-10-07T17:47:14.772Z,4.28
2022-10-07T17:51:18.514Z,3.03
2022-10-07T17:55:20.551Z,3.47
2022-10-07T17:59:22.705Z,3.63
2022-10-07T18:03:26.364Z,3.97
2022-10-07T18:07:29.151Z,2.80
2022-10-07T18:11:50.193Z,2.88
2022-10-07T18:16:02.435Z,3.80
2022-10-07T18:20:10.332Z,4.00
2022-10-07T18:24:16.634Z,3.42
2022-10-07T18:28:18.705Z,2.70
2022-10-07T18:32:20.920Z,2.90
2022-10-07T18:36:22.949Z,3.10
2022-10-07T18:40:24.968Z,3.35
2022-10-07T18:44:27.235Z,3.30
2022-10-07T18:48:30.995Z,3.20
2022-10-07T18:52:33.087Z,5.05
2022-10-07T18:56:39.938Z,3.72
2022-10-07T19:00:43.806Z,3.10
2022-10-07T19:04:46.029Z,3.80
2022-10-07T19:08:48.065Z,4.38
2022-10-07T19:13:08.484Z,4.80
2022-10-07T19:17:10.946Z,5.53
2022-10-07T19:21:13.424Z,13.88
2022-10-07T19:25:34.599Z,10.60
2022-10-07T19:29:36.568Z,9.38
2022-10-07T19:33:38.546Z,9.00
2022-10-07T19:37:42.321Z,8.15
2022-10-07T19:41:45.253Z,23.40
2022-10-07T19:45:47.998Z,14.20
2022-10-07T19:49:52.612Z,16.70
2022-10-07T19:53:57.361Z,11.65
2022-10-07T19:58:01.719Z,10.95
2022-10-07T20:02:04.347Z,10.07
2022-10-07T20:06:08.428Z,9.35
2022-10-07T20:10:10.503Z,9.45
2022-10-07T20:14:15.137Z,8.23
2022-10-07T20:18:17.940Z,8.75
2022-10-07T20:22:19.969Z,13.48
2022-10-07T20:26:33.157Z,11.77
2022-10-07T20:30:35.155Z,7.05
2022-10-07T20:34:38.265Z,7.80
2022-10-07T20:38:59.855Z,7.85
2022-10-07T20:43:03.279Z,8.95
2022-10-07T20:47:07.608Z,8.80
2022-10-07T20:51:10.228Z,9.45
2022-10-07T20:55:14.125Z,7.97
2022-10-07T20:59:16.259Z,7.65
2022-10-07T21:03:18.283Z,4.97
2022-10-07T21:07:20.707Z,5.43
2022-10-07T21:11:22.701Z,5.55
2022-10-07T21:15:25.596Z,9.65
2022-10-07T21:19:27.813Z,8.93
2022-10-07T21:23:30.919Z,7.88
2022-10-07T21:27:33.374Z,6.70
2022-10-07T21:31:35.951Z,7.22
2022-10-07T21:35:38.204Z,8.40
2022-10-07T21:39:40.217Z,6.43
2022-10-07T21:43:43.896Z,6.50
2022-10-07T21:47:45.897Z,6.57
2022-10-07T21:51:48.069Z,6.22
2022-10-07T21:55:50.586Z,5.85
2022-10-07T21:59:53.672Z,5.70
2022-10-07T22:03:57.692Z,5.57
2022-10-07T22:08:18.358Z,6.30
2022-10-07T22:12:20.390Z,5.22
2022-10-07T22:16:22.900Z,5.40
2022-10-07T22:20:25.105Z,5.55
2022-10-07T22:24:27.133Z,5.82
2022-10-07T22:28:29.417Z,5.55
2022-10-07T22:32:31.500Z,5.70
2022-10-07T22:36:33.930Z,4.97
2022-10-07T22:40:37.847Z,5.65
2022-10-07T22:44:39.873Z,5.32
2022-10-07T22:48:43.492Z,5.05
2022-10-07T22:52:47.387Z,5.72
2022-10-07T22:56:49.692Z,5.47
2022-10-07T23:00:51.766Z,4.65
2022-10-07T23:04:54.798Z,5.40
2022-10-07T23:08:56.828Z,5.03
2022-10-07T23:13:02.342Z,5.60
2022-10-07T23:17:04.397Z,6.85
2022-10-07T23:21:09.581Z,8.98
2022-10-07T23:25:11.581Z,9.02
2022-10-07T23:29:13.721Z,8.68
2022-10-07T23:33:15.840Z,8.85
2022-10-07T23:37:17.927Z,6.70
2022-10-07T23:41:23.128Z,5.78
2022-10-07T23:45:25.319Z,6.07
2022-10-07T23:49:27.334Z,4.88
2022-10-07T23:53:30.498Z,4.47
2022-10-07T23:57:32.559Z,4.57
